Cape Hatteras, North Carolina
Current Conditions -  °F | °C
As of 10:51 PM on Thursday 20 Nov 2014 (Local Time) from KHSE Reporting Station
Clear Clear  
Wind Chill: 52°   Ceiling: Unl
Heat Index: 52°   Visibility: 10mi
Dew Point: 40°   Wind: 12mph
Humidity: 63%   Direction: 260°W
Pressure: 30.13"   Gusts: NA
Location:  35.23°N, 75.62°W
Report Text: KHSE 210351Z AUTO 26010KT 10SM CLR 11/04 A3013 RMK AO2 SLP201 T01110044 TSNO
Loading
Personal Weather Stations






























Interactive Weather Map New forecast layout! Learn more

10-Day Weather Forecast

Advertisements
Track Severe Weather on mobile